Time;durP1;ratioP1;P1;durP2;ratioP2;P2;SDS_P1;SDS_P2;PMS_P1;PMS_P2;Temp;Humidity;BMP_temperature;BMP_pressure;BME280_temperature;BME280_humidity;BME280_pressure;Samples;Min_cycle;Max_cycle;Signal;HPM_P1;HPM_P2
2023/02/22 00:05:46;;;;;;;30.70;7.10;;;;;;;4.69;97.67;98985.00;269692;1276;22566;-90
2023/02/22 00:11:51;;;;;;;26.30;8.50;;;;;;;4.69;97.44;98984.05;268279;1275;22566;-91
2023/02/22 00:17:54;;;;;;;30.40;9.70;;;;;;;4.68;97.45;98983.70;268503;1277;22741;-91
2023/02/22 00:23:58;;;;;;;33.10;10.50;;;;;;;4.65;97.51;98991.23;268188;1277;22591;-91
2023/02/22 00:30:01;;;;;;;26.50;9.10;;;;;;;4.64;97.52;98990.02;268376;1276;25515;-91
2023/02/22 00:36:07;;;;;;;32.20;9.80;;;;;;;4.62;97.66;98995.89;269413;1277;22922;-92
2023/02/22 00:42:09;;;;;;;30.20;10.60;;;;;;;4.60;97.77;99002.56;270215;1277;22345;-91
2023/02/22 00:48:12;;;;;;;25.90;10.00;;;;;;;4.59;98.05;99003.70;269541;1277;22722;-90
2023/02/22 00:54:15;;;;;;;36.30;12.70;;;;;;;4.56;98.41;99014.06;269654;1270;22651;-89
2023/02/22 01:00:28;;;;;;;48.60;14.30;;;;;;;4.55;98.47;99012.80;270381;1276;22421;-91
2023/02/22 01:06:34;;;;;;;59.80;14.60;;;;;;;4.56;98.66;99014.39;269209;1277;22736;-91
2023/02/22 01:12:42;;;;;;;40.40;13.30;;;;;;;4.58;98.80;99012.25;268929;1276;23409;-91
2023/02/22 01:18:46;;;;;;;44.30;13.40;;;;;;;4.58;98.70;99012.58;268460;1275;22547;-91
2023/02/22 01:24:51;;;;;;;42.20;13.90;;;;;;;4.58;98.78;99019.24;270909;1275;22319;-89
2023/02/22 01:31:01;;;;;;;55.10;15.10;;;;;;;4.57;98.87;99014.79;269697;1275;22590;-91
2023/02/22 01:37:05;;;;;;;46.50;15.20;;;;;;;4.58;98.91;99012.42;268858;1277;22533;-90
2023/02/22 01:43:24;;;;;;;63.00;17.20;;;;;;;4.57;99.00;99009.14;268903;1276;23041;-89
2023/02/22 01:49:42;;;;;;;50.90;15.80;;;;;;;4.56;99.10;99010.23;268086;1277;22583;-89
2023/02/22 01:55:45;;;;;;;53.30;17.00;;;;;;;4.53;99.08;99013.71;269543;1277;22391;-90
2023/02/22 02:01:48;;;;;;;47.10;15.70;;;;;;;4.52;99.16;99013.38;270110;1277;22605;-89
2023/02/22 02:07:50;;;;;;;46.60;14.70;;;;;;;4.51;99.14;99006.98;268167;1276;22973;-91
2023/02/22 02:13:56;;;;;;;45.20;15.50;;;;;;;4.48;99.07;99011.52;268614;1277;22597;-90
2023/02/22 02:20:38;;;;;;;49.40;16.80;;;;;;;4.44;99.30;99008.66;269551;1276;22559;-89
2023/02/22 02:26:58;;;;;;;46.30;16.90;;;;;;;4.42;99.60;99003.40;268475;1277;23817;-90
2023/02/22 02:33:16;;;;;;;51.50;15.90;;;;;;;4.41;99.45;99010.50;268583;1274;25656;-89
2023/02/22 02:39:34;;;;;;;39.10;15.00;;;;;;;4.41;99.50;99009.58;268142;1270;22556;-90
2023/02/22 02:45:50;;;;;;;49.30;14.60;;;;;;;4.40;99.31;99010.88;267949;1277;24708;-89
2023/02/22 02:51:55;;;;;;;42.50;13.50;;;;;;;4.41;99.10;99013.83;268943;1277;25445;-90
2023/02/22 02:57:59;;;;;;;37.60;12.90;;;;;;;4.43;99.10;99015.61;271956;1277;22570;-89
2023/02/22 03:04:19;;;;;;;39.60;12.50;;;;;;;4.43;99.45;99019.27;270352;1276;22321;-90
2023/02/22 03:10:41;;;;;;;42.80;14.20;;;;;;;4.39;99.32;99020.83;271280;1277;23546;-89
2023/02/22 03:17:21;;;;;;;31.80;13.10;;;;;;;4.36;99.19;99021.17;272349;1278;22199;-90
2023/02/22 03:23:31;;;;;;;35.70;14.10;;;;;;;4.31;99.11;99030.44;270009;1277;22579;-89
2023/02/22 03:29:37;;;;;;;34.60;14.00;;;;;;;4.27;99.34;99031.98;268067;1275;24269;-90
2023/02/22 03:35:44;;;;;;;54.40;17.90;;;;;;;4.26;99.52;99032.81;267948;1276;25315;-90
2023/02/22 03:41:50;;;;;;;45.40;15.60;;;;;;;4.27;99.83;99034.94;268313;1271;22539;-91
2023/02/22 03:48:05;;;;;;;42.00;15.70;;;;;;;4.29;100.00;99037.19;267963;1277;23463;-91
2023/02/22 03:54:08;;;;;;;41.20;15.10;;;;;;;4.28;100.00;99037.98;268701;1276;25539;-89
2023/02/22 04:00:17;;;;;;;33.60;16.50;;;;;;;4.25;100.00;99040.30;268881;1276;22199;-90
2023/02/22 04:06:19;;;;;;;34.90;15.60;;;;;;;4.18;99.98;99041.27;268529;1277;23031;-91
2023/02/22 04:12:23;;;;;;;37.60;15.60;;;;;;;4.15;100.00;99039.52;268140;1268;22573;-90
2023/02/22 04:18:40;;;;;;;35.80;15.20;;;;;;;4.16;100.00;99040.02;269342;1277;22187;-89
2023/02/22 04:24:49;;;;;;;35.80;15.60;;;;;;;4.17;100.00;99043.21;268571;1276;24434;-90
2023/02/22 04:30:52;;;;;;;51.90;17.50;;;;;;;4.15;100.00;99044.57;271342;1277;22285;-89
2023/02/22 04:36:57;;;;;;;44.40;17.30;;;;;;;4.13;100.00;99042.63;270334;1277;22738;-90
2023/02/22 04:43:00;;;;;;;41.10;17.70;;;;;;;4.13;100.00;99044.25;269629;1272;22596;-90
2023/02/22 04:49:02;;;;;;;43.50;16.50;;;;;;;4.10;100.00;99040.34;268479;1276;22556;-90
2023/02/22 04:55:08;;;;;;;45.40;18.20;;;;;;;4.09;100.00;99047.27;270111;1275;22550;-89
2023/02/22 05:01:13;;;;;;;45.40;18.60;;;;;;;4.08;100.00;99045.15;269905;1276;25332;-92
2023/02/22 05:07:19;;;;;;;43.20;18.40;;;;;;;4.03;100.00;99046.75;268055;1267;23791;-89
2023/02/22 05:13:23;;;;;;;50.50;20.00;;;;;;;4.04;100.00;99047.21;269976;1276;25439;-91
2023/02/22 05:19:27;;;;;;;45.20;18.40;;;;;;;4.05;100.00;99049.70;269857;1275;22724;-90
2023/02/22 05:26:18;;;;;;;35.90;17.20;;;;;;;4.06;100.00;99047.23;269903;1275;22564;-91
2023/02/22 05:32:45;;;;;;;51.90;18.20;;;;;;;4.05;100.00;99056.04;271952;1276;22211;-90
2023/02/22 05:38:51;;;;;;;43.50;18.70;;;;;;;4.06;100.00;99063.48;271943;1275;22360;-90
2023/02/22 05:45:02;;;;;;;49.00;18.70;;;;;;;4.03;100.00;99063.31;270753;1276;22224;-90
2023/02/22 05:51:09;;;;;;;;;;;;;;;4.04;100.00;99066.34;268958;1277;23437;-89
2023/02/22 05:57:13;;;;;;;48.20;18.80;;;;;;;4.01;100.00;99070.35;269474;1277;24048;-91
2023/02/22 06:03:15;;;;;;;48.80;20.40;;;;;;;3.99;100.00;99077.20;270711;1277;22187;-90
2023/02/22 06:09:17;;;;;;;52.40;23.50;;;;;;;3.96;100.00;99083.98;270451;1275;22341;-90
2023/02/22 06:15:21;;;;;;;51.60;24.50;;;;;;;3.93;100.00;99095.87;272216;1278;23111;-90
2023/02/22 06:21:23;;;;;;;66.10;26.70;;;;;;;3.88;100.00;99106.21;271889;1277;22586;-90
2023/02/22 06:27:26;;;;;;;55.40;24.80;;;;;;;3.89;100.00;99115.64;268609;1277;24292;-91
2023/02/22 06:33:28;;;;;;;54.60;25.20;;;;;;;3.90;100.00;99116.91;270333;1275;22651;-91
2023/02/22 06:39:30;;;;;;;65.80;28.10;;;;;;;3.90;100.00;99120.91;269247;1273;22660;-90
2023/02/22 06:45:32;;;;;;;57.90;25.80;;;;;;;3.92;100.00;99125.31;269655;1279;22390;-90
2023/02/22 06:51:52;;;;;;;64.20;25.80;;;;;;;3.98;100.00;99131.08;269350;1276;22446;-90
2023/02/22 06:58:02;;;;;;;60.80;26.00;;;;;;;4.07;100.00;99135.56;269883;1276;23268;-90
2023/02/22 07:04:04;;;;;;;57.70;26.20;;;;;;;4.16;100.00;99136.63;269755;1269;23462;-90
2023/02/22 07:10:17;;;;;;;60.00;26.70;;;;;;;4.24;100.00;99140.20;269545;1276;24383;-90
2023/02/22 07:16:21;;;;;;;59.70;26.80;;;;;;;4.30;100.00;99143.45;269695;1276;26248;-90
2023/02/22 07:22:23;;;;;;;61.70;23.60;;;;;;;4.37;100.00;99142.55;268998;1277;22972;-90
2023/02/22 07:28:26;;;;;;;54.40;23.50;;;;;;;4.41;100.00;99145.83;269297;1276;22559;-90
2023/02/22 07:34:28;;;;;;;68.30;24.60;;;;;;;4.49;100.00;99145.15;268471;1273;24420;-89
2023/02/22 07:40:31;;;;;;;59.00;27.30;;;;;;;4.55;100.00;99148.71;269180;1277;23377;-90
2023/02/22 07:46:35;;;;;;;60.70;23.20;;;;;;;4.67;100.00;99148.92;268169;1277;22612;-90
2023/02/22 07:52:38;;;;;;;59.80;25.40;;;;;;;4.75;100.00;99149.77;268789;1276;23295;-89
2023/02/22 07:58:53;;;;;;;61.70;26.00;;;;;;;4.87;100.00;99145.46;269336;1277;22671;-91
2023/02/22 08:04:55;;;;;;;66.80;26.30;;;;;;;5.02;100.00;99151.34;268945;1270;22546;-91
2023/02/22 08:11:05;;;;;;;69.30;27.90;;;;;;;5.10;100.00;99151.77;269241;1277;23441;-90
2023/02/22 08:17:07;;;;;;;56.20;23.50;;;;;;;5.22;100.00;99153.30;268929;1276;22639;-91
2023/02/22 08:23:13;;;;;;;62.10;22.10;;;;;;;5.35;100.00;99156.30;268725;1276;25996;-90
2023/02/22 08:29:15;;;;;;;53.80;21.30;;;;;;;5.49;100.00;99158.48;268361;1276;22160;-91
2023/02/22 08:35:18;;;;;;;61.90;21.00;;;;;;;5.57;100.00;99159.67;269170;1276;23118;-91
2023/02/22 08:41:20;;;;;;;55.80;21.00;;;;;;;5.60;100.00;99161.73;268961;1275;22613;-91
2023/02/22 08:47:22;;;;;;;54.90;22.20;;;;;;;5.71;100.00;99160.24;270439;1274;22346;-88
2023/02/22 08:53:24;;;;;;;56.60;22.80;;;;;;;5.88;99.95;99161.66;272277;1276;22217;-89
2023/02/22 08:59:27;;;;;;;45.10;18.40;;;;;;;6.05;99.71;99164.55;271288;1276;22501;-88
2023/02/22 09:05:33;;;;;;;47.90;15.80;;;;;;;6.18;99.00;99164.41;269946;1269;22556;-88
2023/02/22 09:11:35;;;;;;;32.50;12.70;;;;;;;6.34;98.37;99159.23;270286;1276;22575;-88
2023/02/22 09:17:40;;;;;;;45.90;17.40;;;;;;;6.54;97.45;99163.86;268988;1276;23449;-89
2023/02/22 09:23:46;;;;;;;29.10;12.90;;;;;;;6.77;96.44;99167.11;269972;1276;22675;-88
2023/02/22 09:29:56;;;;;;;43.70;14.60;;;;;;;7.09;95.96;99168.08;266604;1276;2632792;-89
2023/02/22 09:36:14;;;;;;;45.70;16.10;;;;;;;7.32;95.77;99170.73;268972;1276;23046;-90
2023/02/22 09:42:34;;;;;;;39.00;15.70;;;;;;;7.62;95.23;99166.84;270520;1276;22403;-92
2023/02/22 09:48:44;;;;;;;31.30;11.80;;;;;;;7.89;94.15;99162.76;269617;1276;22351;-89
2023/02/22 09:55:09;;;;;;;18.60;6.50;;;;;;;8.43;93.37;99162.55;268843;1276;22571;-90
2023/02/22 10:01:38;;;;;;;11.20;5.60;;;;;;;8.73;90.44;99166.05;268606;1277;22618;-90
2023/02/22 10:07:54;;;;;;;11.70;4.40;;;;;;;8.77;88.20;99160.59;269114;1277;22377;-91
2023/02/22 10:14:05;;;;;;;17.50;5.20;;;;;;;8.76;87.64;99156.59;269122;1277;22551;-90
2023/02/22 10:20:47;;;;;;;13.80;4.60;;;;;;;8.90;87.22;99149.39;268143;1277;22772;-90
2023/02/22 10:26:50;;;;;;;12.20;3.70;;;;;;;9.01;85.49;99142.42;271128;1276;22567;-90
2023/02/22 10:33:04;;;;;;;22.10;4.30;;;;;;;8.83;85.93;99140.36;272170;1276;22398;-91
2023/02/22 10:39:57;;;;;;;15.20;4.30;;;;;;;8.87;84.57;99135.42;270704;1276;22420;-91
2023/02/22 10:46:20;;;;;;;14.40;4.20;;;;;;;9.23;83.75;99133.24;271837;1275;23426;-89
2023/02/22 10:52:34;;;;;;;15.50;4.40;;;;;;;9.39;82.35;99140.81;270961;1275;22630;-90
2023/02/22 10:58:59;;;;;;;15.10;4.40;;;;;;;9.33;81.34;99136.63;271225;1276;22332;-91
2023/02/22 11:05:28;;;;;;;11.90;3.90;;;;;;;9.59;80.97;99134.60;271459;1276;22340;-91
2023/02/22 11:11:30;;;;;;;13.20;3.90;;;;;;;9.76;79.79;99129.81;271349;1276;22323;-90
2023/02/22 11:17:33;;;;;;;12.20;3.30;;;;;;;9.98;78.84;99125.14;271765;1275;22331;-90
2023/02/22 11:23:36;;;;;;;12.60;3.30;;;;;;;10.24;79.75;99123.46;271855;1275;22524;-90
2023/02/22 11:29:39;;;;;;;11.40;2.90;;;;;;;10.42;77.20;99122.46;271036;1276;24241;-90
2023/02/22 11:36:01;;;;;;;11.00;4.40;;;;;;;10.52;75.58;99122.37;271534;1277;22339;-91
2023/02/22 11:42:26;;;;;;;17.70;3.90;;;;;;;9.86;74.96;99124.18;270174;1273;22132;-92
2023/02/22 11:48:38;;;;;;;15.50;4.40;;;;;;;9.22;75.77;99119.27;269052;1276;25522;-88
2023/02/22 11:55:08;;;;;;;13.20;4.40;;;;;;;9.46;76.21;99120.30;269913;1276;22218;-91
2023/02/22 12:02:13;;;;;;;14.90;4.10;;;;;;;9.78;75.01;99117.26;270178;1275;22552;-91
2023/02/22 12:08:43;;;;;;;13.20;3.90;;;;;;;9.87;74.77;99103.66;271697;1276;22381;-91
2023/02/22 12:14:56;;;;;;;18.90;5.00;;;;;;;9.60;74.60;99100.89;271914;1276;22427;-90
2023/02/22 12:21:02;;;;;;;18.70;4.80;;;;;;;9.49;74.15;99101.48;272173;1276;22328;-90
2023/02/22 12:27:30;;;;;;;14.50;4.60;;;;;;;9.63;74.00;99100.63;271854;1276;22201;-90
2023/02/22 12:34:08;;;;;;;13.40;4.00;;;;;;;9.56;72.59;99093.39;270987;1276;22427;-92
2023/02/22 12:40:22;;;;;;;11.70;3.80;;;;;;;9.43;71.32;99097.79;270502;1276;24191;-90
2023/02/22 12:46:41;;;;;;;16.40;4.40;;;;;;;9.32;71.86;99093.59;271832;1276;22308;-88
2023/02/22 12:52:52;;;;;;;9.90;4.70;;;;;;;9.10;71.28;99095.16;272183;1276;22358;-91
2023/02/22 12:59:01;;;;;;;14.40;4.70;;;;;;;8.97;70.67;99092.34;271912;1276;22230;-90
2023/02/22 13:05:05;;;;;;;14.40;3.90;;;;;;;8.86;70.43;99092.37;271793;1276;23682;-90
2023/02/22 13:11:45;;;;;;;15.80;4.80;;;;;;;8.90;70.43;99090.02;271906;1275;22223;-91
2023/02/22 13:18:13;;;;;;;18.80;4.90;;;;;;;8.89;70.08;99086.49;272006;1275;22861;-92
2023/02/22 13:24:29;;;;;;;22.10;6.10;;;;;;;8.73;69.45;99088.69;270799;1275;23773;-90
2023/02/22 13:30:49;;;;;;;13.80;5.30;;;;;;;8.56;69.28;99090.84;269870;1276;22534;-91
2023/02/22 13:37:34;;;;;;;17.70;6.30;;;;;;;8.57;69.62;99094.21;269666;1275;22573;-91
2023/02/22 13:43:51;;;;;;;23.40;6.60;;;;;;;8.42;69.02;99093.41;270732;1276;22222;-91
2023/02/22 13:50:32;;;;;;;14.90;6.00;;;;;;;8.27;68.73;99095.66;271552;1276;22428;-90
2023/02/22 13:56:34;;;;;;;14.80;6.00;;;;;;;8.31;68.65;99094.59;271859;1275;23267;-91
2023/02/22 14:02:56;;;;;;;24.70;6.30;;;;;;;8.35;68.55;99093.35;271504;1276;23597;-91
2023/02/22 14:08:58;;;;;;;13.40;5.30;;;;;;;8.22;68.05;99099.05;271925;1264;22259;-91
2023/02/22 14:15:09;;;;;;;16.80;6.30;;;;;;;8.08;68.43;99098.34;271812;1276;22357;-90
2023/02/22 14:21:19;;;;;;;22.10;8.20;;;;;;;8.06;68.54;99094.23;271855;1275;23599;-91
2023/02/22 14:27:23;;;;;;;20.60;8.20;;;;;;;8.03;67.92;99094.27;271518;1276;23547;-90
2023/02/22 14:34:04;;;;;;;16.90;6.10;;;;;;;7.95;67.48;99095.95;271738;1277;22196;-91
2023/02/22 14:40:24;;;;;;;15.60;6.60;;;;;;;7.88;67.96;99095.86;271588;1276;23401;-91
2023/02/22 14:46:39;;;;;;;28.30;8.70;;;;;;;7.79;67.78;99100.77;271820;1276;22253;-93
2023/02/22 14:52:45;;;;;;;30.00;9.40;;;;;;;7.67;68.02;99102.68;271527;1276;22453;-91
2023/02/22 14:58:58;;;;;;;38.70;10.30;;;;;;;7.58;68.10;99100.98;271708;1275;22336;-90
2023/02/22 15:05:04;;;;;;;10.60;5.50;;;;;;;7.52;68.08;99102.54;270707;1275;22609;-90
2023/02/22 15:11:29;;;;;;;20.80;6.40;;;;;;;7.37;67.88;99106.45;270583;1275;22222;-90
2023/02/22 15:17:45;;;;;;;31.30;7.70;;;;;;;7.23;67.80;99107.48;270820;1276;23735;-91
2023/02/22 15:23:53;;;;;;;19.00;6.90;;;;;;;7.15;67.89;99108.52;270570;1274;22407;-90
2023/02/22 15:30:04;;;;;;;41.90;11.10;;;;;;;7.11;68.10;99104.36;271101;1276;22214;-90
2023/02/22 15:36:13;;;;;;;29.90;9.00;;;;;;;7.03;67.92;99105.70;271038;1275;22770;-91
2023/02/22 15:42:22;;;;;;;39.60;9.90;;;;;;;6.94;67.92;99107.86;270350;1276;22383;-91
2023/02/22 15:48:27;;;;;;;26.30;8.30;;;;;;;6.86;67.86;99108.81;271975;1276;22202;-91
2023/02/22 15:54:39;;;;;;;20.90;7.50;;;;;;;6.78;68.09;99111.31;271661;1275;23252;-91
2023/02/22 16:01:06;;;;;;;18.40;7.00;;;;;;;6.67;68.13;99111.64;271466;1276;23477;-90
2023/02/22 16:07:15;;;;;;;28.70;10.20;;;;;;;6.57;68.35;99112.80;270842;1267;22432;-90
2023/02/22 16:13:23;;;;;;;21.10;7.40;;;;;;;6.46;68.52;99117.85;270791;1275;23837;-91
2023/02/22 16:19:34;;;;;;;23.60;6.90;;;;;;;6.35;68.54;99122.44;271101;1268;22608;-92
2023/02/22 16:25:38;;;;;;;38.30;13.00;;;;;;;6.30;69.04;99127.05;270706;1276;23600;-91
2023/02/22 16:31:43;;;;;;;33.80;11.10;;;;;;;6.24;69.28;99126.23;271488;1276;22977;-89
2023/02/22 16:37:50;;;;;;;20.20;9.70;;;;;;;6.14;69.29;99131.81;271343;1270;22433;-90
2023/02/22 16:43:53;;;;;;;21.20;9.30;;;;;;;6.04;69.64;99136.16;271688;1276;22245;-90
2023/02/22 16:49:56;;;;;;;20.90;7.60;;;;;;;5.96;70.00;99140.95;264027;1276;10002058;-90
2023/02/22 16:56:11;;;;;;;18.00;8.10;;;;;;;5.78;69.93;99142.45;271823;1275;22339;-90
2023/02/22 17:02:15;;;;;;;26.90;9.00;;;;;;;5.63;70.44;99144.54;271442;1276;22540;-90
2023/02/22 17:08:17;;;;;;;25.70;10.50;;;;;;;5.50;70.66;99149.22;271528;1277;22354;-90
2023/02/22 17:14:24;;;;;;;30.60;12.80;;;;;;;5.34;70.94;99153.84;271644;1276;23669;-91
2023/02/22 17:20:30;;;;;;;45.30;15.90;;;;;;;5.17;71.38;99155.82;271792;1276;22617;-91
2023/02/22 17:26:39;;;;;;;52.50;20.20;;;;;;;4.99;71.94;99151.09;271714;1276;22405;-89
2023/02/22 17:32:54;;;;;;;59.30;22.90;;;;;;;4.82;72.45;99148.09;271386;1275;22360;-90
2023/02/22 17:39:02;;;;;;;66.80;26.30;;;;;;;4.68;72.93;99150.38;271512;1277;22354;-90
2023/02/22 17:45:07;;;;;;;72.80;31.60;;;;;;;4.53;73.08;99146.77;271614;1276;22379;-91
2023/02/22 17:51:11;;;;;;;96.70;38.60;;;;;;;4.38;73.54;99144.83;271515;1277;22418;-89
2023/02/22 17:57:13;;;;;;;92.90;40.80;;;;;;;4.28;73.81;99146.02;271410;1275;22500;-90
2023/02/22 18:03:20;;;;;;;68.90;29.80;;;;;;;4.19;74.25;99145.20;271607;1277;22219;-89
2023/02/22 18:09:35;;;;;;;73.00;37.80;;;;;;;4.07;74.47;99147.73;271146;1276;22418;-89
2023/02/22 18:15:40;;;;;;;82.50;35.60;;;;;;;3.97;74.76;99150.11;271621;1276;22208;-90
2023/02/22 18:21:42;;;;;;;81.60;35.90;;;;;;;3.86;75.32;99150.07;271517;1275;23061;-89
2023/02/22 18:27:53;;;;;;;75.40;35.20;;;;;;;3.70;75.43;99148.70;271641;1276;22336;-90
2023/02/22 18:34:16;;;;;;;78.10;36.90;;;;;;;3.62;75.64;99148.11;271622;1276;22348;-90
2023/02/22 18:40:46;;;;;;;83.20;35.40;;;;;;;3.59;75.80;99145.74;271419;1277;22548;-90
2023/02/22 18:46:51;;;;;;;85.10;39.30;;;;;;;3.55;75.84;99140.25;271637;1276;22453;-91
2023/02/22 18:52:58;;;;;;;90.60;40.30;;;;;;;3.51;75.92;99140.67;271495;1275;22204;-89
2023/02/22 18:59:03;;;;;;;97.60;45.00;;;;;;;3.44;76.15;99137.67;271366;1276;22305;-90
2023/02/22 19:05:05;;;;;;;171.70;71.80;;;;;;;3.36;76.47;99139.97;271369;1277;23061;-90
2023/02/22 19:11:17;;;;;;;150.40;61.80;;;;;;;3.27;76.37;99138.92;271551;1270;23526;-90
2023/02/22 19:17:31;;;;;;;108.10;46.10;;;;;;;3.09;76.51;99142.64;271613;1276;22232;-90
2023/02/22 19:23:44;;;;;;;113.40;48.60;;;;;;;2.85;77.00;99144.08;271467;1277;22232;-89
2023/02/22 19:29:49;;;;;;;119.20;51.40;;;;;;;2.63;77.31;99149.58;271649;1277;22973;-90
2023/02/22 19:36:01;;;;;;;;;;;;;;;2.38;77.65;99148.36;271472;1277;22461;-90
2023/02/22 19:42:04;;;;;;;91.30;41.70;;;;;;;2.05;78.05;99152.34;271543;1277;22397;-89
2023/02/22 19:48:07;;;;;;;88.40;41.70;;;;;;;1.76;78.66;99154.80;271653;1276;22204;-90
2023/02/22 19:54:37;;;;;;;110.60;45.50;;;;;;;1.50;79.19;99155.54;271116;1275;22352;-89
2023/02/22 20:00:39;;;;;;;148.70;56.60;;;;;;;1.28;80.01;99157.26;271608;1277;22600;-90
2023/02/22 20:06:50;;;;;;;114.50;49.60;;;;;;;1.15;80.34;99161.92;271548;1267;22223;-89
2023/02/22 20:13:36;;;;;;;116.60;48.80;;;;;;;1.03;80.69;99164.13;271585;1275;22207;-90
2023/02/22 20:20:16;;;;;;;77.90;36.10;;;;;;;0.82;81.09;99165.67;271332;1276;23781;-90
2023/02/22 20:26:22;;;;;;;133.50;51.30;;;;;;;0.66;81.75;99161.51;271611;1280;23667;-89
2023/02/22 20:32:49;;;;;;;114.00;45.10;;;;;;;0.55;82.11;99157.81;271738;1275;22381;-89
2023/02/22 20:38:53;;;;;;;;;;;;;;;0.38;82.33;99157.09;271783;1277;22563;-91
2023/02/22 20:45:00;;;;;;;144.60;53.10;;;;;;;0.29;83.03;99159.14;271590;1261;23706;-89
2023/02/22 20:51:10;;;;;;;135.60;55.90;;;;;;;0.21;83.61;99160.11;271827;1275;23630;-89
2023/02/22 20:57:18;;;;;;;107.90;45.00;;;;;;;0.11;83.82;99157.33;271534;1277;22351;-89
2023/02/22 21:03:22;;;;;;;108.30;45.20;;;;;;;0.03;84.13;99157.45;271671;1276;22320;-90
2023/02/22 21:09:24;;;;;;;95.20;41.50;;;;;;;-0.15;83.32;99175.38;271779;1277;22333;-89
2023/02/22 21:15:26;;;;;;;106.30;43.90;;;;;;;-0.23;84.27;99181.30;271818;1264;23589;-89
2023/02/22 21:21:50;;;;;;;106.30;45.00;;;;;;;-0.14;85.15;99182.02;271745;1275;22358;-88
2023/02/22 21:28:16;;;;;;;76.30;33.40;;;;;;;0.02;85.37;99183.91;259831;1275;10001954;-90
2023/02/22 21:34:22;;;;;;;57.90;25.50;;;;;;;0.21;85.57;99184.63;271696;1276;22303;-89
2023/02/22 21:40:25;;;;;;;53.50;24.40;;;;;;;0.37;85.70;99183.03;271813;1276;22353;-89
2023/02/22 21:46:31;;;;;;;52.20;21.50;;;;;;;0.48;86.07;99181.48;271862;1278;22199;-89
2023/02/22 21:52:36;;;;;;;43.80;21.60;;;;;;;0.53;86.78;99180.73;271861;1265;23570;-90
2023/02/22 21:58:42;;;;;;;48.50;22.10;;;;;;;0.53;87.31;99184.13;271848;1279;22369;-89
2023/02/22 22:04:54;;;;;;;38.90;19.40;;;;;;;0.50;87.58;99187.20;271585;1277;22586;-89
2023/02/22 22:10:57;;;;;;;41.30;19.80;;;;;;;0.44;87.98;99188.14;271673;1276;22206;-89
2023/02/22 22:17:00;;;;;;;43.10;19.30;;;;;;;0.39;87.99;99186.31;271352;1275;22397;-88
2023/02/22 22:23:04;;;;;;;43.90;18.20;;;;;;;0.35;88.34;99186.85;271575;1276;22332;-90
2023/02/22 22:29:10;;;;;;;40.10;16.50;;;;;;;0.28;88.47;99184.58;271381;1277;23310;-88
2023/02/22 22:35:13;;;;;;;30.20;15.50;;;;;;;0.20;88.64;99181.80;271243;1276;23160;-89
2023/02/22 22:41:17;;;;;;;32.70;14.50;;;;;;;0.13;88.77;99187.33;271775;1273;23069;-89
2023/02/22 22:47:19;;;;;;;32.60;14.90;;;;;;;0.07;88.75;99181.96;270508;1276;22356;-87
2023/02/22 22:53:21;;;;;;;35.70;15.10;;;;;;;0.03;88.95;99181.04;269703;1275;22550;-88
2023/02/22 22:59:23;;;;;;;26.20;13.70;;;;;;;-0.01;89.09;99183.05;269610;1276;22572;-89
2023/02/22 23:05:29;;;;;;;29.80;14.30;;;;;;;-0.05;89.01;99180.45;270772;1277;23214;-89
2023/02/22 23:11:32;;;;;;;36.10;14.10;;;;;;;-0.12;89.22;99181.23;271938;1277;22444;-88
2023/02/22 23:17:41;;;;;;;31.10;15.00;;;;;;;-0.17;89.46;99176.86;270988;1276;23835;-87
2023/02/22 23:23:47;;;;;;;35.50;15.10;;;;;;;-0.24;89.53;99178.41;269887;1277;22557;-88
2023/02/22 23:29:49;;;;;;;22.00;11.20;;;;;;;-0.31;89.96;99175.93;270717;1276;22323;-88
2023/02/22 23:35:59;;;;;;;30.70;14.40;;;;;;;-0.37;90.13;99176.10;271982;1277;22397;-89
2023/02/22 23:42:04;;;;;;;32.80;13.60;;;;;;;-0.40;90.24;99177.93;271998;1276;22342;-88
2023/02/22 23:48:09;;;;;;;31.80;14.50;;;;;;;-0.45;90.35;99175.02;270931;1276;22344;-88
2023/02/22 23:54:14;;;;;;;32.80;14.80;;;;;;;-0.52;90.58;99173.86;271930;1276;22319;-89
